Time;durP1;ratioP1;P1;durP2;ratioP2;P2;SDS_P1;SDS_P2;PMS_P1;PMS_P2;Temp;Humidity;BMP_temperature;BMP_pressure;BME280_temperature;BME280_humidity;BME280_pressure;Samples;Min_cycle;Max_cycle;Signal;HPM_P1;HPM_P2
2021/11/20 14:22:38;;;;;;;3.47;2.08;;;11.30;64.00;;;;;;5185442;23;20213;-89
2021/11/20 14:25:20;;;;;;;8.52;1.73;;;11.30;64.80;;;;;;4956464;29;20046;-89
2021/11/20 14:27:59;;;;;;;2.30;1.27;;;11.30;65.10;;;;;;4960390;29;20079;-90
2021/11/20 14:30:26;;;;;;;3.83;1.67;;;11.20;64.10;;;;;;4950642;29;20019;-93
2021/11/20 14:33:05;;;;;;;5.80;1.92;;;11.20;64.10;;;;;;4944322;29;20385;-89
2021/11/20 14:35:33;;;;;;;7.18;2.72;;;11.20;64.30;;;;;;4935701;29;20083;-91
2021/11/20 14:38:01;;;;;;;3.88;1.58;;;11.20;64.20;;;;;;4946119;29;20110;-90
2021/11/20 14:40:28;;;;;;;6.68;1.90;;;11.10;64.60;;;;;;4928385;29;20079;-89
2021/11/20 14:43:00;;;;;;;7.82;2.10;;;11.10;63.60;;;;;;4934558;29;20038;-90
2021/11/20 14:45:28;;;;;;;10.70;2.90;;;11.10;63.70;;;;;;4945323;29;20110;-91
2021/11/20 14:47:59;;;;;;;3.15;1.80;;;11.00;63.70;;;;;;4934172;29;20055;-90
2021/11/20 14:50:36;;;;;;;4.82;1.85;;;11.00;64.10;;;;;;4931050;29;20055;-90
2021/11/20 14:53:25;;;;;;;5.18;1.83;;;10.90;64.50;;;;;;4952172;29;20020;-90
2021/11/20 14:55:58;;;;;;;6.72;2.28;;;10.90;64.60;;;;;;4952416;29;20039;-90
2021/11/20 14:58:26;;;;;;;3.47;1.88;;;10.80;64.80;;;;;;4925372;29;20079;-89
2021/11/20 15:01:24;;;;;;;;;;;;;;;;;;;;;
2021/11/20 15:04:15;;;;;;;5.90;2.28;;;10.70;65.50;;;;;;4928231;29;20027;-89
2021/11/20 15:07:07;;;;;;;4.15;1.70;;;10.60;65.50;;;;;;4942200;29;20099;-90
2021/11/20 15:09:43;;;;;;;9.57;2.88;;;10.60;65.70;;;;;;4928017;29;20035;-90
2021/11/20 15:13:00;;;;;;;4.30;2.03;;;10.60;66.10;;;;;;4941706;29;20035;-88
2021/11/20 15:15:43;;;;;;;6.15;2.60;;;10.50;66.00;;;;;;4933796;29;20035;-90
2021/11/20 15:18:18;;;;;;;3.47;2.28;;;10.60;66.50;;;;;;4957955;29;20028;-90
2021/11/20 15:20:45;;;;;;;4.97;2.35;;;10.60;66.20;;;;;;4939980;29;20034;-89
2021/11/20 15:26:31;;;;;;;3.13;1.70;;;10.60;66.10;;;;;;4914013;29;20058;-89
2021/11/20 15:29:00;;;;;;;10.25;1.98;;;10.60;65.70;;;;;;4900378;29;20041;-89
2021/11/20 15:31:34;;;;;;;3.65;1.40;;;10.50;65.10;;;;;;4920864;29;20042;-90
2021/11/20 15:34:09;;;;;;;5.70;2.58;;;10.60;64.60;;;;;;4923915;29;20039;-89
2021/11/20 15:36:42;;;;;;;4.13;1.60;;;10.50;64.50;;;;;;4938132;29;20039;-91
2021/11/20 15:39:14;;;;;;;1.98;1.27;;;10.50;64.10;;;;;;4923250;29;20402;-89
2021/11/20 15:42:00;;;;;;;2.95;1.63;;;10.50;64.00;;;;;;4910550;29;20040;-93
2021/11/20 15:44:25;;;;;;;;;;;10.40;63.90;;;;;;4924967;29;20066;-91
2021/11/20 15:47:03;;;;;;;;;;;;;;;;;;;;;
2021/11/20 15:49:30;;;;;;;9.30;1.70;;;10.40;64.00;;;;;;4930976;29;20119;-90
2021/11/20 15:51:59;;;;;;;1.77;1.10;;;10.30;64.10;;;;;;4915148;29;20065;-92
2021/11/20 15:54:31;;;;;;;6.25;1.80;;;10.30;64.50;;;;;;4937974;29;20035;-89
2021/11/20 15:56:57;;;;;;;5.47;1.90;;;10.20;64.60;;;;;;4937766;29;20046;-90
2021/11/20 15:59:28;;;;;;;6.05;2.67;;;10.20;64.80;;;;;;4938065;29;20109;-90
2021/11/20 16:01:57;;;;;;;5.75;2.30;;;10.10;64.90;;;;;;4947108;29;20039;-90
2021/11/20 16:04:24;;;;;;;9.05;2.00;;;10.10;65.20;;;;;;4942911;29;20510;-90
2021/11/20 16:06:50;;;;;;;8.90;2.47;;;10.10;65.10;;;;;;4921448;29;20143;-90
2021/11/20 16:09:19;;;;;;;4.93;2.28;;;10.10;65.30;;;;;;4922039;29;20031;-89
2021/11/20 16:11:45;;;;;;;4.95;2.25;;;10.10;65.40;;;;;;4921212;29;20028;-90
2021/11/20 16:14:10;;;;;;;4.05;2.55;;;10.10;65.70;;;;;;4921573;29;20036;-90
2021/11/20 16:16:43;;;;;;;6.88;1.95;;;10.10;65.70;;;;;;4920976;29;20553;-89
2021/11/20 16:19:11;;;;;;;3.97;2.40;;;10.10;65.80;;;;;;4919459;29;20479;-89
2021/11/20 16:21:41;;;;;;;4.22;1.70;;;10.00;66.00;;;;;;4937926;29;20036;-90
2021/11/20 16:24:16;;;;;;;3.58;1.77;;;10.00;66.00;;;;;;4923774;29;20036;-89
2021/11/20 16:26:42;;;;;;;5.07;1.85;;;10.00;66.40;;;;;;4910193;29;20047;-90
2021/11/20 16:29:08;;;;;;;3.30;1.63;;;9.90;66.60;;;;;;4933459;29;20024;-89
2021/11/20 16:31:34;;;;;;;2.70;1.52;;;9.90;66.60;;;;;;4936819;29;20032;-88
2021/11/20 16:34:02;;;;;;;4.65;2.10;;;9.80;66.80;;;;;;4934939;29;20050;-89
2021/11/20 16:36:32;;;;;;;6.85;1.67;;;9.80;67.20;;;;;;4923020;29;20062;-89
2021/11/20 16:39:02;;;;;;;4.80;2.08;;;9.70;67.40;;;;;;4922329;29;20032;-89
2021/11/20 16:41:33;;;;;;;4.22;1.80;;;9.70;67.50;;;;;;4920336;29;20035;-89
2021/11/20 16:44:04;;;;;;;2.70;2.38;;;9.60;67.60;;;;;;4920113;29;20487;-89
2021/11/20 16:46:40;;;;;;;2.85;1.40;;;9.60;67.90;;;;;;4938367;29;20136;-89
2021/11/20 16:49:07;;;;;;;12.05;2.38;;;9.50;68.00;;;;;;4920679;29;20039;-90
2021/11/20 16:54:29;;;;;;;3.75;1.50;;;9.50;68.20;;;;;;4940052;29;20035;-90
2021/11/20 16:56:56;;;;;;;;;;;9.50;68.40;;;;;;4926769;29;20450;-90
2021/11/20 16:59:23;;;;;;;4.45;2.50;;;9.40;68.20;;;;;;4939557;29;19906;-90
2021/11/20 17:01:52;;;;;;;4.68;1.52;;;9.40;68.40;;;;;;4912399;29;20070;-89
2021/11/20 17:04:19;;;;;;;2.78;1.70;;;9.30;68.60;;;;;;4926492;29;20046;-90
2021/11/20 17:06:45;;;;;;;12.68;2.70;;;9.30;68.70;;;;;;4928390;29;20372;-88
2021/11/20 17:09:14;;;;;;;2.38;1.55;;;9.30;68.90;;;;;;4931595;29;20024;-89
2021/11/20 17:11:40;;;;;;;3.72;2.28;;;9.30;69.00;;;;;;4932382;29;20090;-89
2021/11/20 17:14:09;;;;;;;15.98;2.90;;;9.30;69.10;;;;;;4948147;29;20042;-89
2021/11/20 17:16:36;;;;;;;2.63;1.52;;;9.20;69.20;;;;;;4928271;29;20479;-88
2021/11/20 17:19:34;;;;;;;3.17;1.77;;;9.20;69.90;;;;;;4924809;29;20028;-90
2021/11/20 17:22:02;;;;;;;2.28;1.15;;;9.10;69.30;;;;;;4932748;29;20035;-87
2021/11/20 17:24:28;;;;;;;4.93;1.75;;;9.10;69.60;;;;;;4952675;29;20028;-89
2021/11/20 17:26:58;;;;;;;4.25;2.17;;;9.10;69.70;;;;;;4952783;29;20048;-88
2021/11/20 17:29:27;;;;;;;2.25;1.25;;;9.10;69.80;;;;;;4951215;29;20030;-89
2021/11/20 17:31:56;;;;;;;8.27;1.88;;;9.10;69.70;;;;;;4928719;29;20035;-89
2021/11/20 17:34:22;;;;;;;4.53;2.13;;;9.00;69.70;;;;;;4925917;29;20032;-89
2021/11/20 17:36:50;;;;;;;4.13;1.67;;;9.00;69.80;;;;;;4924305;29;20027;-88
2021/11/20 17:39:16;;;;;;;5.57;1.55;;;9.00;70.00;;;;;;4923576;29;20036;-88
2021/11/20 17:41:42;;;;;;;15.75;2.60;;;9.00;70.20;;;;;;4939465;29;20024;-89
2021/11/20 17:44:08;;;;;;;4.40;2.13;;;9.00;70.30;;;;;;4939252;29;20035;-89
2021/11/20 17:46:34;;;;;;;4.50;1.70;;;9.00;70.40;;;;;;4922621;29;20128;-89
2021/11/20 17:49:01;;;;;;;6.65;2.25;;;9.00;70.50;;;;;;4922762;29;20386;-89
2021/11/20 17:51:27;;;;;;;3.90;1.90;;;8.90;70.50;;;;;;4938498;29;20031;-89
2021/11/20 17:53:53;;;;;;;4.03;1.65;;;8.90;70.70;;;;;;4922102;29;20028;-89
2021/11/20 17:56:19;;;;;;;3.42;1.73;;;8.90;70.70;;;;;;4939602;29;20054;-89
2021/11/20 17:58:45;;;;;;;4.80;2.33;;;8.90;70.80;;;;;;4923384;29;20028;-90
2021/11/20 18:01:11;;;;;;;3.95;2.65;;;8.80;70.90;;;;;;4939396;29;20091;-90
2021/11/20 18:03:38;;;;;;;5.55;1.95;;;8.80;71.20;;;;;;4922227;29;20420;-89
2021/11/20 18:06:05;;;;;;;5.65;2.72;;;8.70;71.40;;;;;;4922287;29;20039;-89
2021/11/20 18:08:31;;;;;;;3.45;2.10;;;8.70;71.60;;;;;;4940018;29;20031;-90
2021/11/20 18:10:58;;;;;;;4.25;1.50;;;8.70;71.90;;;;;;4939024;29;20031;-90
2021/11/20 18:13:24;;;;;;;1.65;1.55;;;8.60;71.90;;;;;;4921965;29;20023;-89
2021/11/20 18:15:50;;;;;;;3.65;1.52;;;8.60;72.10;;;;;;4921247;29;20032;-89
2021/11/20 18:18:16;;;;;;;2.35;1.92;;;8.60;72.20;;;;;;4921468;29;20038;-89
2021/11/20 18:20:43;;;;;;;4.07;1.67;;;8.60;72.30;;;;;;4921501;29;20051;-90
2021/11/20 18:23:09;;;;;;;2.13;1.77;;;8.50;72.40;;;;;;4921107;29;20471;-90
2021/11/20 18:25:35;;;;;;;3.95;1.58;;;8.50;72.50;;;;;;4938071;29;20063;-89
2021/11/20 18:28:07;;;;;;;8.75;2.22;;;8.50;73.20;;;;;;4920956;29;20051;-89
2021/11/20 18:30:34;;;;;;;1.90;1.40;;;8.40;72.70;;;;;;4920997;29;20027;-90
2021/11/20 18:33:00;;;;;;;2.22;1.40;;;8.40;72.90;;;;;;4920916;29;20038;-89
2021/11/20 18:35:26;;;;;;;4.80;2.13;;;8.40;73.00;;;;;;4921339;29;20122;-89
2021/11/20 18:37:52;;;;;;;2.28;1.88;;;8.30;73.10;;;;;;4920964;29;20094;-89
2021/11/20 18:40:18;;;;;;;2.60;1.35;;;8.30;73.60;;;;;;4921403;29;20032;-89
2021/11/20 18:42:43;;;;;;;1.52;1.33;;;8.30;73.90;;;;;;4920950;29;20028;-89
2021/11/20 18:45:09;;;;;;;4.05;1.52;;;8.20;74.10;;;;;;4920867;29;20130;-89
2021/11/20 18:47:35;;;;;;;4.45;2.75;;;8.20;74.30;;;;;;4922575;29;20382;-89
2021/11/20 18:50:04;;;;;;;3.72;1.98;;;8.20;74.40;;;;;;4956565;29;20052;-89
2021/11/20 18:59:15;;;;;;;5.97;1.90;;;8.10;75.40;;;;;;4940460;29;20094;-89
2021/11/20 19:01:41;;;;;;;6.80;2.13;;;8.00;75.30;;;;;;4923036;29;20033;-90
2021/11/20 19:04:07;;;;;;;1.92;1.80;;;8.00;75.40;;;;;;4921920;29;20031;-90
2021/11/20 19:06:33;;;;;;;9.18;2.92;;;7.90;75.50;;;;;;4920645;29;20032;-90
2021/11/20 19:08:59;;;;;;;6.70;2.67;;;7.90;76.00;;;;;;4920602;29;20028;-90
2021/11/20 19:11:29;;;;;;;5.93;1.65;;;7.90;76.10;;;;;;4920349;29;20059;-89
2021/11/20 19:13:57;;;;;;;5.05;2.10;;;7.80;76.40;;;;;;4936611;29;20028;-90
2021/11/20 19:16:23;;;;;;;6.88;2.58;;;7.80;76.70;;;;;;4920392;29;20116;-89
2021/11/20 19:18:50;;;;;;;3.25;1.55;;;7.70;77.00;;;;;;4919385;29;20035;-89
2021/11/20 19:21:16;;;;;;;5.43;1.90;;;7.70;77.20;;;;;;4919920;29;20046;-90
2021/11/20 19:23:43;;;;;;;6.03;2.88;;;7.70;77.40;;;;;;4920027;29;20028;-90
2021/11/20 19:26:09;;;;;;;7.85;2.33;;;7.60;77.60;;;;;;4936600;29;20075;-90
2021/11/20 19:28:45;;;;;;;7.72;2.13;;;7.60;77.80;;;;;;4920155;29;20031;-89
2021/11/20 19:31:13;;;;;;;3.53;2.08;;;7.50;78.20;;;;;;4920261;29;20028;-90
2021/11/20 19:33:39;;;;;;;6.22;2.13;;;7.50;78.40;;;;;;4920177;29;20095;-90
2021/11/20 19:36:07;;;;;;;5.05;2.50;;;7.50;79.20;;;;;;4936850;29;20035;-90
2021/11/20 19:38:38;;;;;;;3.97;2.38;;;7.40;79.50;;;;;;4920151;29;20062;-89
2021/11/20 19:41:13;;;;;;;4.40;2.22;;;7.40;79.80;;;;;;4920205;29;20031;-89
2021/11/20 19:43:39;;;;;;;3.90;1.85;;;7.40;79.90;;;;;;4936966;29;20036;-89
2021/11/20 19:46:05;;;;;;;7.28;1.70;;;7.40;80.10;;;;;;4919816;29;20091;-89
2021/11/20 19:48:31;;;;;;;7.03;3.13;;;7.30;80.20;;;;;;4920154;29;20035;-90
2021/11/20 19:50:58;;;;;;;2.97;1.75;;;7.30;80.70;;;;;;4919952;29;20035;-90
2021/11/20 19:53:27;;;;;;;6.45;2.47;;;7.30;81.10;;;;;;4920019;29;20031;-89
2021/11/20 19:55:53;;;;;;;4.32;2.03;;;7.20;81.40;;;;;;4920076;29;20027;-88
2021/11/20 19:58:19;;;;;;;2.72;1.50;;;7.20;81.50;;;;;;4919664;29;20063;-88
2021/11/20 20:00:45;;;;;;;3.38;1.67;;;7.20;82.40;;;;;;4919753;29;20027;-88
2021/11/20 20:03:12;;;;;;;4.05;1.67;;;7.20;82.50;;;;;;4919825;29;20035;-89
2021/11/20 20:05:41;;;;;;;2.95;1.92;;;7.10;82.60;;;;;;4920142;29;20118;-89
2021/11/20 20:08:07;;;;;;;2.65;1.52;;;7.10;82.60;;;;;;4935970;29;20038;-90
2021/11/20 20:10:34;;;;;;;4.13;2.10;;;7.10;82.50;;;;;;4935221;29;20032;-90
2021/11/20 20:13:02;;;;;;;6.85;2.45;;;7.10;82.70;;;;;;4919596;29;20039;-88
2021/11/20 20:15:28;;;;;;;2.85;1.98;;;7.00;83.00;;;;;;4945381;29;20028;-89
2021/11/20 20:17:55;;;;;;;3.53;2.25;;;7.00;82.80;;;;;;4935996;29;20027;-90
2021/11/20 20:20:22;;;;;;;2.03;1.60;;;7.00;83.20;;;;;;4936188;29;20039;-89
2021/11/20 20:22:51;;;;;;;8.57;2.13;;;7.00;83.30;;;;;;4932604;29;20095;-89
2021/11/20 20:25:18;;;;;;;3.88;2.08;;;7.00;83.60;;;;;;4939678;29;20089;-88
2021/11/20 20:27:44;;;;;;;2.33;1.60;;;7.00;84.10;;;;;;4922292;29;20056;-89
2021/11/20 20:30:14;;;;;;;3.80;2.20;;;6.90;83.90;;;;;;4923057;29;20490;-88
2021/11/20 20:32:40;;;;;;;3.53;1.98;;;6.90;84.30;;;;;;4924607;29;20032;-89
2021/11/20 20:35:06;;;;;;;7.18;2.33;;;6.90;84.10;;;;;;4923781;29;20036;-88
2021/11/20 20:37:33;;;;;;;4.28;1.80;;;6.90;84.20;;;;;;4923389;29;20035;-88
2021/11/20 20:40:36;;;;;;;2.78;1.83;;;6.90;84.60;;;;;;4930510;29;20032;-89
2021/11/20 20:43:04;;;;;;;3.67;1.75;;;6.80;85.30;;;;;;4925921;29;20035;-89
2021/11/20 20:45:30;;;;;;;4.55;2.08;;;6.80;84.70;;;;;;4923755;29;20091;-88
2021/11/20 20:47:55;;;;;;;2.30;1.52;;;6.80;84.90;;;;;;4923534;29;20035;-89
2021/11/20 20:50:23;;;;;;;6.53;2.08;;;6.70;85.00;;;;;;4955661;29;20028;-87
2021/11/20 20:52:49;;;;;;;1.52;1.25;;;6.70;85.30;;;;;;4958950;29;20023;-88
2021/11/20 20:55:16;;;;;;;1.90;1.50;;;6.70;85.30;;;;;;4928918;29;20067;-88
2021/11/20 20:57:42;;;;;;;2.85;1.60;;;6.70;86.00;;;;;;4924150;29;20031;-88
2021/11/20 21:00:09;;;;;;;2.78;1.83;;;6.70;85.80;;;;;;4939943;29;20051;-89
2021/11/20 21:02:35;;;;;;;4.47;1.67;;;6.60;85.80;;;;;;4939875;29;20047;-89
2021/11/20 21:05:03;;;;;;;4.03;1.75;;;6.60;85.60;;;;;;4922822;29;20063;-89
2021/11/20 21:07:30;;;;;;;2.15;1.45;;;6.60;86.50;;;;;;4924015;29;20051;-88
2021/11/20 21:09:56;;;;;;;3.03;1.35;;;6.60;86.10;;;;;;4924605;29;20027;-89
2021/11/20 21:12:21;;;;;;;2.70;1.85;;;6.50;86.50;;;;;;4939686;29;20027;-89
2021/11/20 21:14:47;;;;;;;1.55;1.08;;;6.50;86.40;;;;;;4922816;29;20032;-89
2021/11/20 21:17:14;;;;;;;1.58;1.48;;;6.50;87.10;;;;;;4922909;29;20032;-89
2021/11/20 21:22:10;;;;;;;3.15;1.70;;;6.40;87.20;;;;;;4943951;29;20103;-89
2021/11/20 21:24:48;;;;;;;1.67;1.45;;;6.40;87.10;;;;;;4927107;29;20203;-89
2021/11/20 21:27:16;;;;;;;4.07;1.73;;;6.40;87.90;;;;;;4942228;29;20047;-89
2021/11/20 21:29:42;;;;;;;5.22;2.22;;;6.40;87.70;;;;;;4944207;29;20034;-89
2021/11/20 21:32:11;;;;;;;2.28;2.08;;;6.40;87.90;;;;;;4926074;29;20063;-89
2021/11/20 21:34:39;;;;;;;4.93;1.95;;;6.40;87.80;;;;;;4942724;29;20031;-89
2021/11/20 21:37:06;;;;;;;5.72;2.13;;;6.30;88.60;;;;;;4943723;29;20032;-89
2021/11/20 21:39:33;;;;;;;7.05;1.92;;;6.30;88.50;;;;;;4931153;29;20471;-88
2021/11/20 21:41:59;;;;;;;9.98;2.38;;;6.30;89.20;;;;;;4949458;29;20084;-88
2021/11/20 21:44:26;;;;;;;2.63;2.05;;;6.30;89.40;;;;;;4940057;29;20028;-88
2021/11/20 21:46:52;;;;;;;2.55;1.98;;;6.30;89.30;;;;;;4936493;29;20490;-88
2021/11/20 21:49:19;;;;;;;2.75;1.45;;;6.30;89.50;;;;;;4930906;29;20032;-89
2021/11/20 21:51:44;;;;;;;3.35;1.20;;;6.30;89.60;;;;;;4939615;29;20028;-89
2021/11/20 21:54:11;;;;;;;3.42;1.85;;;6.20;89.70;;;;;;4922703;29;20124;-89
2021/11/20 21:56:37;;;;;;;3.10;1.48;;;6.20;90.10;;;;;;4939503;29;20035;-88
2021/11/20 21:59:03;;;;;;;2.10;1.50;;;6.20;90.30;;;;;;4922053;29;20031;-89
2021/11/20 22:01:29;;;;;;;2.58;1.98;;;6.30;90.30;;;;;;4922036;29;20023;-89
2021/11/20 22:03:55;;;;;;;1.88;1.13;;;6.20;90.30;;;;;;4922451;29;20054;-89
2021/11/20 22:06:21;;;;;;;5.65;1.52;;;6.20;90.20;;;;;;4938653;29;20467;-89
2021/11/20 22:08:48;;;;;;;4.00;1.42;;;6.20;90.40;;;;;;4921949;29;20475;-89
2021/11/20 22:11:14;;;;;;;3.35;1.35;;;6.20;90.40;;;;;;4921650;29;20028;-88
2021/11/20 22:13:40;;;;;;;2.60;1.50;;;6.20;90.50;;;;;;4921628;29;20063;-89
2021/11/20 22:16:06;;;;;;;3.65;2.40;;;6.10;90.60;;;;;;4921349;29;20032;-88
2021/11/20 22:18:33;;;;;;;7.88;2.55;;;6.20;90.80;;;;;;4938294;29;20028;-89
2021/11/20 22:20:59;;;;;;;6.68;1.95;;;6.10;91.20;;;;;;4921459;29;20031;-88
2021/11/20 22:23:25;;;;;;;5.13;2.05;;;6.10;91.30;;;;;;4921147;29;20032;-89
2021/11/20 22:25:50;;;;;;;8.13;1.60;;;6.10;91.50;;;;;;4920805;29;20091;-89
2021/11/20 22:28:17;;;;;;;4.28;1.35;;;6.10;91.40;;;;;;4921180;29;20032;-89
2021/11/20 22:30:43;;;;;;;8.82;2.33;;;6.10;91.50;;;;;;4921197;29;20372;-89
2021/11/20 22:33:12;;;;;;;4.68;1.60;;;6.10;91.50;;;;;;4921301;29;20035;-89
2021/11/20 22:35:41;;;;;;;2.75;1.63;;;6.00;91.80;;;;;;4936964;29;20039;-88
2021/11/20 22:38:07;;;;;;;5.18;1.85;;;6.00;92.20;;;;;;4921243;29;20034;-89
2021/11/20 22:40:34;;;;;;;5.05;1.42;;;6.10;92.20;;;;;;4921104;29;20028;-89
2021/11/20 22:43:01;;;;;;;5.13;2.05;;;6.00;92.40;;;;;;4921515;29;20050;-88
2021/11/20 22:45:30;;;;;;;3.85;1.42;;;6.10;92.50;;;;;;4937663;29;20036;-89
2021/11/20 22:47:56;;;;;;;4.55;1.85;;;6.10;92.50;;;;;;4921536;29;20461;-89
2021/11/20 22:50:22;;;;;;;2.35;1.55;;;6.10;92.60;;;;;;4920852;29;20067;-89
2021/11/20 22:52:48;;;;;;;3.45;1.67;;;6.10;92.60;;;;;;4920761;29;20510;-88
2021/11/20 22:55:14;;;;;;;4.03;2.00;;;6.10;92.60;;;;;;4937757;29;20443;-89
2021/11/20 22:57:40;;;;;;;2.60;1.60;;;6.10;92.60;;;;;;4920843;29;20078;-88
2021/11/20 23:00:18;;;;;;;4.57;1.73;;;6.20;92.60;;;;;;4921493;29;20031;-89
2021/11/20 23:02:44;;;;;;;6.32;1.77;;;6.10;93.10;;;;;;4922229;29;20024;-88
2021/11/20 23:05:10;;;;;;;4.85;1.70;;;6.10;93.00;;;;;;4939381;29;20031;-88
2021/11/20 23:07:36;;;;;;;4.32;2.13;;;6.10;92.70;;;;;;4925437;29;20036;-88
2021/11/20 23:10:04;;;;;;;5.05;2.22;;;6.10;93.00;;;;;;4935825;29;20018;-88
2021/11/20 23:12:30;;;;;;;2.75;2.22;;;6.10;92.80;;;;;;4938416;29;20073;-87
2021/11/20 23:14:56;;;;;;;3.72;1.77;;;6.10;93.10;;;;;;4941081;29;20036;-86
2021/11/20 23:17:24;;;;;;;4.30;2.60;;;6.10;93.40;;;;;;4930490;29;20051;-89
2021/11/20 23:19:50;;;;;;;2.10;1.60;;;6.10;93.30;;;;;;4925841;29;20027;-89
2021/11/20 23:22:15;;;;;;;4.78;1.88;;;6.10;93.30;;;;;;4938465;29;20043;-87
2021/11/20 23:24:41;;;;;;;8.02;2.25;;;6.10;93.40;;;;;;4920503;29;20145;-89
2021/11/20 23:27:07;;;;;;;5.13;2.22;;;6.10;93.20;;;;;;4920127;29;20052;-88
2021/11/20 23:29:33;;;;;;;4.32;1.60;;;6.10;93.30;;;;;;4920918;29;20127;-89
2021/11/20 23:31:59;;;;;;;10.88;2.67;;;6.00;93.20;;;;;;4920865;29;20042;-88
2021/11/20 23:34:24;;;;;;;5.35;2.05;;;6.00;93.50;;;;;;4920214;29;20027;-88
2021/11/20 23:36:50;;;;;;;5.43;2.13;;;5.90;93.60;;;;;;4920026;29;20079;-89
2021/11/20 23:39:16;;;;;;;7.35;2.53;;;5.80;93.60;;;;;;4919651;29;20032;-88
2021/11/20 23:41:42;;;;;;;4.15;1.95;;;5.80;93.80;;;;;;4920031;29;20131;-89
2021/11/20 23:44:08;;;;;;;5.53;2.95;;;5.70;93.90;;;;;;4919926;29;20028;-89
2021/11/20 23:46:34;;;;;;;5.18;2.25;;;5.70;94.20;;;;;;4919902;29;20043;-88
2021/11/20 23:49:01;;;;;;;6.80;2.53;;;5.60;94.10;;;;;;4920603;29;20036;-88
2021/11/20 23:51:28;;;;;;;5.38;3.03;;;5.50;94.50;;;;;;4919855;29;20034;-88
2021/11/20 23:53:54;;;;;;;7.13;3.45;;;5.50;94.50;;;;;;4919873;29;20471;-88
2021/11/20 23:56:23;;;;;;;6.47;2.25;;;5.40;94.70;;;;;;4919960;29;20183;-88
2021/11/20 23:58:51;;;;;;;12.43;3.63;;;5.30;94.60;;;;;;4936667;29;20035;-88
